createdAt,value
2023-03-04T00:00:32.268Z,29.00
2023-03-04T00:03:20.134Z,28.13
2023-03-04T00:05:47.473Z,24.63
2023-03-04T00:08:15.180Z,26.27
2023-03-04T00:10:42.686Z,27.47
2023-03-04T00:13:10.278Z,26.43
2023-03-04T00:15:37.515Z,27.43
2023-03-04T00:18:05.140Z,28.40
2023-03-04T00:20:32.520Z,25.20
2023-03-04T00:23:00.100Z,27.43
2023-03-04T00:25:27.382Z,27.70
2023-03-04T00:27:54.939Z,30.00
2023-03-04T00:30:22.198Z,30.33
2023-03-04T00:32:49.948Z,28.77
2023-03-04T00:35:17.444Z,30.33
2023-03-04T00:37:44.977Z,32.47
2023-03-04T00:40:12.952Z,32.93
2023-03-04T00:42:40.510Z,32.50
2023-03-04T00:45:09.283Z,34.57
2023-03-04T00:47:36.887Z,32.37
2023-03-04T00:50:05.024Z,35.33
2023-03-04T00:52:32.979Z,31.40
2023-03-04T00:55:00.253Z,31.63
2023-03-04T00:57:27.803Z,31.90
2023-03-04T00:59:55.062Z,32.07
2023-03-04T01:02:22.601Z,31.87
2023-03-04T01:04:49.920Z,32.63
2023-03-04T01:07:17.416Z,30.63
2023-03-04T01:09:44.822Z,31.87
2023-03-04T01:12:12.507Z,33.33
2023-03-04T01:14:39.802Z,33.33
2023-03-04T01:17:07.319Z,34.50
2023-03-04T01:19:34.593Z,35.37
2023-03-04T01:22:02.159Z,34.13
2023-03-04T01:24:30.216Z,31.43
2023-03-04T01:26:57.758Z,31.50
2023-03-04T01:29:24.968Z,31.90
2023-03-04T01:31:52.477Z,31.20
2023-03-04T01:34:19.747Z,32.13
2023-03-04T01:36:47.310Z,31.10
2023-03-04T01:39:14.546Z,32.07
2023-03-04T01:41:42.270Z,31.47
2023-03-04T01:44:11.204Z,32.90
2023-03-04T01:46:44.004Z,30.80
2023-03-04T01:49:17.199Z,29.77
2023-03-04T01:51:50.579Z,29.37
2023-03-04T01:54:18.424Z,30.50
2023-03-04T01:56:48.871Z,28.23
2023-03-04T01:59:23.997Z,27.33
2023-03-04T02:01:56.033Z,29.87
2023-03-04T02:04:34.520Z,30.30
2023-03-04T02:07:04.652Z,30.17
2023-03-04T02:09:34.348Z,28.27
2023-03-04T02:12:02.510Z,26.87
2023-03-04T02:14:29.881Z,28.43
2023-03-04T02:16:57.646Z,24.67
2023-03-04T02:20:02.650Z,25.70
2023-03-04T02:22:30.653Z,26.67
2023-03-04T02:25:15.967Z,27.90
2023-03-04T02:27:43.537Z,26.07
2023-03-04T02:30:20.290Z,24.93
2023-03-04T02:32:47.992Z,25.57
2023-03-04T02:35:18.888Z,26.43
2023-03-04T02:37:46.799Z,24.53
2023-03-04T02:40:29.518Z,25.03
2023-03-04T02:43:01.217Z,25.17
2023-03-04T02:45:36.451Z,24.57
2023-03-04T02:48:04.779Z,24.40
2023-03-04T02:50:42.982Z,24.20
2023-03-04T02:53:11.013Z,25.50
2023-03-04T02:55:38.518Z,24.20
2023-03-04T02:58:06.114Z,23.50
2023-03-04T03:00:33.640Z,24.43
2023-03-04T03:03:01.298Z,26.20
2023-03-04T03:05:32.548Z,27.03
2023-03-04T03:08:00.331Z,26.63
2023-03-04T03:10:28.321Z,25.37
2023-03-04T03:12:55.977Z,23.13
2023-03-04T03:15:23.331Z,25.13
2023-03-04T03:17:51.016Z,26.63
2023-03-04T03:20:18.460Z,26.10
2023-03-04T03:22:46.133Z,29.23
2023-03-04T03:25:15.573Z,30.40
2023-03-04T03:27:43.455Z,29.03
2023-03-04T03:30:14.160Z,28.40
2023-03-04T03:32:41.739Z,24.10
2023-03-04T03:35:09.567Z,22.00
2023-03-04T03:37:37.130Z,22.20
2023-03-04T03:40:05.582Z,22.53
2023-03-04T03:42:33.220Z,23.00
2023-03-04T03:45:00.471Z,24.53
2023-03-04T03:47:28.072Z,23.33
2023-03-04T03:49:55.386Z,23.80
2023-03-04T03:52:22.988Z,25.17
2023-03-04T03:54:50.374Z,23.83
2023-03-04T03:57:17.946Z,26.43
2023-03-04T03:59:45.308Z,25.80
2023-03-04T04:02:12.918Z,22.80
2023-03-04T04:04:40.330Z,22.90
2023-03-04T04:07:07.837Z,25.27
2023-03-04T04:09:35.136Z,24.23
2023-03-04T04:12:06.304Z,23.30
2023-03-04T04:14:34.190Z,24.80
2023-03-04T04:17:01.767Z,24.13
2023-03-04T04:19:29.080Z,24.27
2023-03-04T04:21:56.662Z,26.13
2023-03-04T04:24:24.168Z,24.47
2023-03-04T04:26:51.846Z,25.97
2023-03-04T04:29:19.721Z,25.73
2023-03-04T04:31:47.318Z,26.67
2023-03-04T04:34:14.710Z,28.00
2023-03-04T04:36:42.495Z,28.03
2023-03-04T04:39:09.855Z,27.03
2023-03-04T04:41:41.103Z,28.97
2023-03-04T04:44:10.723Z,28.23
2023-03-04T04:46:39.609Z,27.93
2023-03-04T04:49:08.018Z,29.13
2023-03-04T04:51:38.377Z,28.23
2023-03-04T04:54:06.822Z,29.07
2023-03-04T04:56:34.620Z,27.13
2023-03-04T04:59:05.090Z,27.93
2023-03-04T05:01:33.028Z,27.80
2023-03-04T05:04:00.453Z,28.47
2023-03-04T05:06:28.311Z,28.40
2023-03-04T05:08:55.910Z,28.47
2023-03-04T05:11:23.663Z,28.73
2023-03-04T05:13:51.613Z,28.33
2023-03-04T05:16:19.510Z,27.13
2023-03-04T05:18:47.003Z,28.17
2023-03-04T05:21:14.926Z,27.53
2023-03-04T05:23:44.071Z,27.70
2023-03-04T05:26:17.828Z,31.33
2023-03-04T05:28:45.938Z,28.20
2023-03-04T05:31:13.530Z,31.77
2023-03-04T05:33:41.118Z,28.40
2023-03-04T05:36:09.268Z,30.43
2023-03-04T05:38:37.068Z,29.93
2023-03-04T05:41:07.741Z,30.07
2023-03-04T05:43:36.350Z,28.77
2023-03-04T05:46:04.961Z,28.93
2023-03-04T05:48:32.316Z,26.67
2023-03-04T05:51:01.823Z,27.53
2023-03-04T05:53:29.493Z,29.83
2023-03-04T05:55:59.363Z,32.23
2023-03-04T05:58:26.709Z,28.23
2023-03-04T06:00:54.477Z,32.77
2023-03-04T06:03:25.442Z,29.20
2023-03-04T06:05:54.399Z,32.60
2023-03-04T06:08:21.712Z,29.97
2023-03-04T06:10:54.395Z,29.20
2023-03-04T06:13:22.606Z,28.00
2023-03-04T06:15:56.341Z,31.23
2023-03-04T06:18:26.117Z,28.33
2023-03-04T06:21:00.209Z,28.53
2023-03-04T06:23:28.329Z,29.80
2023-03-04T06:25:58.994Z,27.67
2023-03-04T06:28:26.859Z,26.47
2023-03-04T06:30:56.332Z,26.83
2023-03-04T06:33:23.925Z,28.23
2023-03-04T06:35:56.415Z,28.80
2023-03-04T06:38:25.415Z,26.07
2023-03-04T06:40:54.312Z,28.13
2023-03-04T06:43:23.377Z,24.47
2023-03-04T06:45:50.961Z,23.77
2023-03-04T06:48:18.274Z,24.20
2023-03-04T06:50:45.847Z,22.53
2023-03-04T06:53:13.206Z,23.30
2023-03-04T06:55:40.852Z,26.50
2023-03-04T06:58:08.154Z,27.13
2023-03-04T07:00:35.740Z,26.63
2023-03-04T07:03:03.256Z,26.47
2023-03-04T07:05:30.972Z,25.60
2023-03-04T07:07:58.162Z,27.37
2023-03-04T07:10:25.788Z,30.00
2023-03-04T07:12:53.077Z,29.93
2023-03-04T07:15:20.839Z,31.17
2023-03-04T07:17:48.101Z,30.67
2023-03-04T07:20:15.796Z,30.50
2023-03-04T07:22:43.052Z,31.17
2023-03-04T07:25:10.950Z,29.03
2023-03-04T07:27:41.330Z,26.93
2023-03-04T07:30:10.142Z,27.03
2023-03-04T07:32:37.536Z,26.37
2023-03-04T07:35:06.026Z,26.17
2023-03-04T07:37:33.582Z,26.73
2023-03-04T07:40:01.172Z,25.63
2023-03-04T07:42:28.547Z,26.40
2023-03-04T07:44:56.129Z,24.67
2023-03-04T07:47:23.392Z,24.87
2023-03-04T07:49:51.089Z,24.20
2023-03-04T07:52:18.411Z,23.13
2023-03-04T07:54:45.988Z,23.33
2023-03-04T07:57:13.332Z,22.80
2023-03-04T07:59:41.012Z,23.30
2023-03-04T08:02:10.572Z,25.23
2023-03-04T08:04:38.276Z,24.83
2023-03-04T08:07:05.612Z,22.43
2023-03-04T08:09:33.191Z,21.50
2023-03-04T08:12:00.487Z,22.27
2023-03-04T08:14:28.080Z,22.23
2023-03-04T08:16:55.419Z,23.93
2023-03-04T08:19:25.025Z,23.70
2023-03-04T08:21:53.186Z,22.90
2023-03-04T08:24:20.819Z,22.47
2023-03-04T08:26:50.645Z,21.80
2023-03-04T08:29:22.613Z,21.47
2023-03-04T08:31:52.656Z,22.50
2023-03-04T08:34:25.333Z,22.80
2023-03-04T08:36:52.788Z,22.23
2023-03-04T08:39:20.917Z,24.37
2023-03-04T08:41:49.282Z,23.27
2023-03-04T08:44:17.100Z,22.10
2023-03-04T08:46:44.417Z,20.80
2023-03-04T08:49:13.108Z,22.73
2023-03-04T08:51:40.843Z,19.80
2023-03-04T08:54:08.513Z,21.10
2023-03-04T08:56:35.903Z,21.87
2023-03-04T08:59:03.960Z,20.20
2023-03-04T09:01:31.358Z,20.57
2023-03-04T09:03:59.044Z,20.13
2023-03-04T09:06:26.565Z,21.17
2023-03-04T09:08:54.253Z,21.57
2023-03-04T09:11:21.724Z,20.77
2023-03-04T09:13:51.364Z,21.93
2023-03-04T09:16:18.964Z,21.77
2023-03-04T09:18:46.607Z,21.67
2023-03-04T09:21:14.157Z,21.97
2023-03-04T09:23:42.894Z,21.30
2023-03-04T09:26:25.151Z,22.23
2023-03-04T09:28:57.258Z,21.70
2023-03-04T09:31:26.942Z,20.27
2023-03-04T09:33:56.199Z,19.93
2023-03-04T09:36:24.618Z,21.63
2023-03-04T09:38:52.756Z,20.10
2023-03-04T09:41:29.206Z,20.70
2023-03-04T09:43:58.466Z,21.27
2023-03-04T09:46:41.659Z,19.97
2023-03-04T09:49:14.170Z,19.55
2023-03-04T09:51:51.987Z,20.47
2023-03-04T09:54:46.668Z,20.80
2023-03-04T09:57:42.991Z,21.47
2023-03-04T10:00:25.928Z,20.33
2023-03-04T10:03:24.801Z,20.08
2023-03-04T10:06:07.457Z,20.65
2023-03-04T10:08:50.180Z,21.87
2023-03-04T10:11:42.864Z,21.17
2023-03-04T10:14:22.557Z,21.23
2023-03-04T10:17:19.711Z,22.23
2023-03-04T10:20:06.146Z,20.23
2023-03-04T10:22:52.103Z,21.07
2023-03-04T10:25:30.405Z,19.87
2023-03-04T10:28:33.707Z,21.67
2023-03-04T10:31:38.820Z,22.03
2023-03-04T10:34:07.235Z,23.73
2023-03-04T10:37:02.988Z,23.50
2023-03-04T10:39:47.166Z,23.70
2023-03-04T10:42:14.520Z,25.63
2023-03-04T10:44:54.330Z,25.77
2023-03-04T10:47:29.472Z,26.27
2023-03-04T10:50:03.700Z,27.13
2023-03-04T10:52:50.016Z,28.87
2023-03-04T10:55:21.742Z,29.13
2023-03-04T10:57:55.718Z,29.10
2023-03-04T11:00:35.231Z,31.60
2023-03-04T11:03:29.694Z,31.27
2023-03-04T11:06:22.239Z,32.87
2023-03-04T11:08:59.101Z,35.40
2023-03-04T11:11:40.164Z,36.07
2023-03-04T11:14:29.547Z,31.80
2023-03-04T11:17:01.578Z,33.90
2023-03-04T11:19:39.161Z,32.83
2023-03-04T11:22:07.192Z,33.27
2023-03-04T11:24:38.172Z,31.43
2023-03-04T11:27:24.325Z,34.07
2023-03-04T11:30:13.571Z,32.73
2023-03-04T11:32:48.947Z,31.27
2023-03-04T11:35:31.160Z,29.67
2023-03-04T11:38:17.084Z,31.70
2023-03-04T11:40:49.379Z,29.00
2023-03-04T11:43:32.809Z,27.63
2023-03-04T11:46:56.486Z,27.37
2023-03-04T11:50:03.569Z,27.43
2023-03-04T11:52:36.558Z,28.52
2023-03-04T11:55:38.904Z,29.77
2023-03-04T11:58:55.438Z,27.23
2023-03-04T12:01:45.437Z,27.87
2023-03-04T12:04:27.444Z,27.10
2023-03-04T12:07:50.393Z,26.42
2023-03-04T12:10:53.159Z,26.20
2023-03-04T12:13:35.539Z,27.65
2023-03-04T12:16:50.864Z,28.20
2023-03-04T12:19:47.897Z,25.38
2023-03-04T12:22:48.965Z,25.73
2023-03-04T12:25:22.361Z,27.67
2023-03-04T12:28:23.105Z,27.50
2023-03-04T12:31:17.596Z,26.27
2023-03-04T12:34:04.307Z,28.95
2023-03-04T12:36:59.003Z,28.73
2023-03-04T12:39:39.720Z,28.63
2023-03-04T12:42:55.774Z,28.13
2023-03-04T12:45:59.510Z,27.77
2023-03-04T12:48:44.201Z,28.67
2023-03-04T12:51:37.348Z,27.67
2023-03-04T12:54:24.086Z,26.35
2023-03-04T12:57:11.972Z,26.87
2023-03-04T13:00:20.396Z,25.27
2023-03-04T13:03:19.224Z,26.73
2023-03-04T13:05:57.399Z,25.10
2023-03-04T13:09:01.499Z,24.23
2023-03-04T13:11:30.109Z,24.42
2023-03-04T13:14:17.493Z,26.13
2023-03-04T13:16:49.416Z,23.23
2023-03-04T13:19:49.008Z,24.80
2023-03-04T13:22:48.049Z,25.53
2023-03-04T13:25:50.269Z,22.20
2023-03-04T13:28:25.624Z,23.20
2023-03-04T13:30:56.009Z,23.00
2023-03-04T13:33:23.618Z,23.83
2023-03-04T13:36:05.414Z,22.00
2023-03-04T13:38:38.834Z,24.52
2023-03-04T13:41:28.400Z,22.85
2023-03-04T13:43:58.443Z,22.05
2023-03-04T13:46:27.642Z,22.83
2023-03-04T13:49:02.317Z,22.88
2023-03-04T13:51:46.290Z,21.52
2023-03-04T13:54:19.847Z,23.48
2023-03-04T13:56:50.935Z,22.50
2023-03-04T13:59:44.325Z,23.73
2023-03-04T14:02:15.049Z,23.37
2023-03-04T14:04:46.042Z,22.30
2023-03-04T14:07:26.482Z,23.85
2023-03-04T14:10:12.648Z,23.77
2023-03-04T14:12:59.148Z,22.58
2023-03-04T14:15:32.207Z,22.15
2023-03-04T14:18:05.466Z,23.40
2023-03-04T14:20:42.785Z,21.58
2023-03-04T14:23:42.719Z,23.43
2023-03-04T14:26:15.901Z,22.38
2023-03-04T14:28:52.051Z,22.58
2023-03-04T14:31:27.657Z,22.48
2023-03-04T14:34:02.546Z,22.23
2023-03-04T14:36:35.900Z,24.08
2023-03-04T14:39:07.364Z,23.52
2023-03-04T14:41:39.560Z,23.50
2023-03-04T14:44:38.148Z,22.98
2023-03-04T14:47:19.586Z,22.30
2023-03-04T14:49:47.656Z,20.48
2023-03-04T14:52:43.522Z,21.83
2023-03-04T14:55:27.112Z,22.03
2023-03-04T14:58:21.852Z,21.77
2023-03-04T15:00:49.955Z,21.58
2023-03-04T15:03:30.563Z,19.83
2023-03-04T15:06:16.439Z,19.60
2023-03-04T15:08:45.494Z,22.40
2023-03-04T15:11:29.898Z,22.98
2023-03-04T15:13:59.891Z,22.17
2023-03-04T15:16:49.776Z,23.55
2023-03-04T15:19:30.258Z,24.42
2023-03-04T15:22:08.239Z,24.88
2023-03-04T15:24:36.130Z,26.30
2023-03-04T15:27:07.803Z,25.60
2023-03-04T15:29:35.591Z,25.97
2023-03-04T15:32:02.903Z,25.53
2023-03-04T15:34:30.984Z,26.97
2023-03-04T15:37:00.212Z,25.00
2023-03-04T15:39:28.137Z,24.63
2023-03-04T15:41:56.020Z,25.90
2023-03-04T15:44:23.664Z,25.80
2023-03-04T15:46:50.928Z,25.55
2023-03-04T15:49:18.490Z,25.38
2023-03-04T15:51:45.834Z,24.55
2023-03-04T15:54:14.117Z,24.73
2023-03-04T15:56:41.619Z,26.83
2023-03-04T15:59:17.465Z,28.23
2023-03-04T16:01:45.193Z,28.13
2023-03-04T16:04:17.219Z,29.57
2023-03-04T16:06:48.385Z,29.85
2023-03-04T16:09:21.252Z,28.75
2023-03-04T16:11:48.639Z,30.45
2023-03-04T16:14:17.158Z,28.77
2023-03-04T16:16:46.592Z,30.25
2023-03-04T16:19:15.251Z,28.92
2023-03-04T16:21:42.710Z,28.95
2023-03-04T16:24:20.003Z,28.35
2023-03-04T16:26:47.955Z,26.90
2023-03-04T16:29:16.883Z,26.90
2023-03-04T16:31:44.449Z,26.33
2023-03-04T16:34:12.382Z,25.85
2023-03-04T16:36:40.905Z,25.73
2023-03-04T16:39:22.981Z,26.35
2023-03-04T16:41:51.763Z,28.85
2023-03-04T16:44:19.679Z,28.50
2023-03-04T16:46:47.158Z,26.60
2023-03-04T16:49:14.709Z,27.25
2023-03-04T16:51:49.984Z,27.08
2023-03-04T16:54:28.016Z,27.40
2023-03-04T16:56:55.390Z,27.57
2023-03-04T16:59:23.323Z,26.27
2023-03-04T17:01:52.957Z,28.17
2023-03-04T17:04:21.622Z,26.85
2023-03-04T17:06:49.056Z,27.67
2023-03-04T17:09:16.727Z,25.67
2023-03-04T17:11:44.093Z,26.90
2023-03-04T17:14:11.808Z,26.90
2023-03-04T17:16:40.315Z,27.17
2023-03-04T17:19:07.913Z,28.55
2023-03-04T17:21:35.260Z,28.77
2023-03-04T17:24:03.545Z,29.20
2023-03-04T17:26:31.995Z,29.38
2023-03-04T17:28:59.701Z,30.95
2023-03-04T17:31:27.025Z,29.55
2023-03-04T17:33:54.701Z,30.33
2023-03-04T17:36:22.107Z,29.30
2023-03-04T17:38:52.021Z,30.42
2023-03-04T17:41:19.880Z,31.17
2023-03-04T17:43:51.642Z,30.83
2023-03-04T17:46:23.657Z,32.60
2023-03-04T17:48:57.640Z,32.65
2023-03-04T17:51:38.065Z,32.87
2023-03-04T17:54:08.694Z,31.67
2023-03-04T17:56:39.588Z,33.75
2023-03-04T17:59:12.666Z,32.85
2023-03-04T18:01:40.709Z,33.05
2023-03-04T18:04:08.937Z,30.60
2023-03-04T18:06:36.570Z,32.15
2023-03-04T18:09:05.520Z,30.90
2023-03-04T18:11:36.256Z,28.75
2023-03-04T18:14:04.531Z,29.33
2023-03-04T18:16:33.090Z,25.60
2023-03-04T18:19:02.353Z,25.80
2023-03-04T18:21:30.688Z,23.27
2023-03-04T18:23:59.239Z,23.10
2023-03-04T18:26:27.759Z,22.92
2023-03-04T18:28:57.124Z,22.35
2023-03-04T18:31:31.633Z,21.77
2023-03-04T18:34:01.977Z,24.45
2023-03-04T18:36:29.828Z,21.98
2023-03-04T18:38:59.533Z,21.90
2023-03-04T18:41:28.467Z,20.42
2023-03-04T18:43:56.508Z,21.40
2023-03-04T18:46:31.226Z,21.23
2023-03-04T18:49:09.016Z,22.60
2023-03-04T18:51:36.768Z,19.52
2023-03-04T18:54:04.982Z,20.50
2023-03-04T18:56:51.578Z,22.90
2023-03-04T18:59:44.677Z,22.85
2023-03-04T19:02:36.219Z,23.52
2023-03-04T19:05:14.309Z,24.08
2023-03-04T19:07:41.803Z,23.33
2023-03-04T19:10:12.318Z,22.85
2023-03-04T19:12:39.814Z,21.45
2023-03-04T19:15:10.396Z,20.55
2023-03-04T19:17:40.016Z,20.83
2023-03-04T19:20:10.045Z,23.15
2023-03-04T19:22:37.693Z,24.80
2023-03-04T19:25:06.022Z,21.25
2023-03-04T19:27:34.221Z,20.27
2023-03-04T19:30:02.469Z,18.52
2023-03-04T19:32:29.950Z,19.70
2023-03-04T19:34:57.759Z,20.75
2023-03-04T19:37:25.215Z,19.25
2023-03-04T19:39:54.562Z,19.08
2023-03-04T19:42:23.647Z,19.27
2023-03-04T19:44:51.840Z,18.42
2023-03-04T19:47:19.399Z,18.13
2023-03-04T19:49:47.215Z,19.15
2023-03-04T19:52:14.516Z,17.50
2023-03-04T19:54:42.162Z,19.90
2023-03-04T19:57:09.480Z,19.40
2023-03-04T19:59:37.190Z,17.92
2023-03-04T20:02:04.626Z,17.40
2023-03-04T20:04:32.533Z,15.82
2023-03-04T20:06:59.964Z,16.17
2023-03-04T20:09:27.720Z,16.20
2023-03-04T20:11:58.875Z,16.58
2023-03-04T20:14:28.179Z,18.65
2023-03-04T20:17:02.693Z,17.23
2023-03-04T20:19:32.256Z,16.27
2023-03-04T20:22:00.287Z,15.13
2023-03-04T20:24:28.096Z,13.88
2023-03-04T20:26:55.784Z,15.50
2023-03-04T20:29:23.705Z,15.57
2023-03-04T20:31:51.012Z,15.30
2023-03-04T20:34:18.798Z,15.05
2023-03-04T20:36:46.230Z,14.73
2023-03-04T20:39:28.689Z,14.25
2023-03-04T20:42:00.260Z,14.25
2023-03-04T20:44:28.476Z,14.52
2023-03-04T20:46:56.300Z,14.05
2023-03-04T20:49:28.422Z,15.13
2023-03-04T20:52:06.542Z,14.60
2023-03-04T20:54:39.300Z,12.88
2023-03-04T20:57:08.180Z,13.15
2023-03-04T20:59:38.612Z,14.85
2023-03-04T21:02:08.825Z,15.70
2023-03-04T21:04:36.572Z,14.05
2023-03-04T21:07:04.364Z,15.57
2023-03-04T21:09:32.080Z,15.63
2023-03-04T21:12:05.774Z,14.53
2023-03-04T21:14:33.578Z,14.20
2023-03-04T21:17:04.194Z,11.47
2023-03-04T21:19:42.398Z,12.45
2023-03-04T21:22:16.399Z,13.02
2023-03-04T21:24:45.660Z,12.30
2023-03-04T21:27:16.641Z,12.15
2023-03-04T21:29:44.484Z,13.88
2023-03-04T21:32:24.896Z,12.82
2023-03-04T21:34:55.329Z,10.90
2023-03-04T21:37:25.439Z,6.82
2023-03-04T21:39:54.448Z,4.90
2023-03-04T21:42:22.114Z,4.72
2023-03-04T21:44:51.473Z,4.80
2023-03-04T21:47:21.511Z,4.38
2023-03-04T21:49:49.333Z,5.88
2023-03-04T21:52:19.200Z,5.03
2023-03-04T21:54:47.973Z,6.53
2023-03-04T21:57:15.958Z,6.10
2023-03-04T21:59:43.529Z,5.43
2023-03-04T22:02:17.576Z,4.88
2023-03-04T22:04:45.730Z,4.95
2023-03-04T22:07:14.127Z,6.15
2023-03-04T22:09:41.720Z,6.60
2023-03-04T22:12:09.479Z,7.20
2023-03-04T22:14:37.135Z,7.25
2023-03-04T22:17:04.646Z,7.93
2023-03-04T22:19:33.450Z,8.48
2023-03-04T22:22:00.757Z,9.05
2023-03-04T22:24:28.948Z,8.13
2023-03-04T22:26:57.752Z,9.05
2023-03-04T22:29:25.546Z,7.88
2023-03-04T22:31:53.004Z,8.13
2023-03-04T22:34:20.869Z,9.45
2023-03-04T22:36:49.467Z,10.75
2023-03-04T22:39:19.478Z,11.82
2023-03-04T22:41:47.626Z,12.13
2023-03-04T22:44:15.428Z,13.95
2023-03-04T22:46:43.724Z,16.55
2023-03-04T22:49:13.884Z,17.90
2023-03-04T22:51:43.535Z,16.52
2023-03-04T22:54:16.920Z,16.65
2023-03-04T22:56:44.936Z,16.38
2023-03-04T22:59:13.734Z,16.88
2023-03-04T23:01:41.889Z,15.48
2023-03-04T23:04:09.497Z,16.80
2023-03-04T23:06:37.836Z,14.75
2023-03-04T23:09:05.958Z,15.15
2023-03-04T23:11:38.944Z,13.95
2023-03-04T23:14:08.552Z,14.20
2023-03-04T23:16:42.640Z,15.05
2023-03-04T23:19:16.637Z,14.35
2023-03-04T23:21:44.639Z,14.40
2023-03-04T23:24:13.513Z,13.10
2023-03-04T23:26:42.578Z,13.25
2023-03-04T23:29:16.474Z,11.73
2023-03-04T23:31:44.546Z,11.65
2023-03-04T23:34:12.930Z,12.40
2023-03-04T23:36:40.946Z,13.68
2023-03-04T23:39:09.200Z,12.02
2023-03-04T23:41:36.614Z,11.45
2023-03-04T23:44:04.626Z,13.30
2023-03-04T23:46:32.358Z,13.45
2023-03-04T23:49:00.525Z,13.05
2023-03-04T23:51:30.276Z,11.40
2023-03-04T23:53:58.924Z,11.10
2023-03-04T23:56:31.419Z,11.10
2023-03-04T23:59:00.704Z,10.50
